Waynesburg, Pennsylvania
Current Conditions -  °F | °C
As of 2:15 PM on Friday 21 Nov 2014 (Local Time) from KAFJ Reporting Station
Clear Clear  
Wind Chill: 21°   Ceiling: Unl
Heat Index: 28°   Visibility: 10mi
Dew Point:   Wind: 7mph
Humidity: 43%   Direction: 260°W
Pressure: 30.46"   Gusts: NA
Location:  39.9°N, 80.18°W
Report Text: KAFJ 211915Z 26006KT 10SM CLR M02/M13 A3046 RMK AO1
Loading
Personal Weather Stations






























Interactive Weather Map New forecast layout! Learn more

10-Day Weather Forecast

Advertisements
Track Severe Weather on mobile